Time;durP1;ratioP1;P1;durP2;ratioP2;P2;SDS_P1;SDS_P2;PMS_P1;PMS_P2;Temp;Humidity;BMP_temperature;BMP_pressure;BME280_temperature;BME280_humidity;BME280_pressure;Samples;Min_cycle;Max_cycle;Signal;HPM_P1;HPM_P2
2021/07/02 00:00:52;;;;;;;2.00;1.80;;;17.80;99.90;;;;;;5050381;28;20119;-66
2021/07/02 00:03:18;;;;;;;2.80;2.60;;;17.80;99.90;;;;;;5051497;28;20025;-66
2021/07/02 00:05:44;;;;;;;2.75;1.52;;;17.80;99.90;;;;;;5051235;28;20040;-67
2021/07/02 00:08:09;;;;;;;2.83;2.38;;;17.90;99.90;;;;;;5051431;28;20482;-66
2021/07/02 00:10:36;;;;;;;3.30;2.78;;;17.80;99.90;;;;;;5049389;28;20051;-67
2021/07/02 00:13:02;;;;;;;4.00;2.20;;;17.90;99.90;;;;;;5051260;28;20026;-66
2021/07/02 00:15:27;;;;;;;2.80;1.55;;;17.90;99.90;;;;;;5049961;28;20502;-67
2021/07/02 00:17:53;;;;;;;4.10;2.30;;;17.90;99.90;;;;;;5051245;28;20025;-65
2021/07/02 00:20:18;;;;;;;5.15;2.67;;;17.90;99.90;;;;;;5051112;28;20087;-67
2021/07/02 00:22:44;;;;;;;2.97;2.50;;;17.90;99.90;;;;;;5051253;28;20037;-66
2021/07/02 00:25:10;;;;;;;2.58;1.92;;;17.90;99.90;;;;;;5050643;28;20021;-66
2021/07/02 00:27:36;;;;;;;3.42;2.10;;;17.80;99.90;;;;;;5051098;28;20051;-66
2021/07/02 00:30:02;;;;;;;3.35;2.25;;;17.80;99.90;;;;;;5050097;28;20488;-66
2021/07/02 00:32:28;;;;;;;2.10;1.80;;;17.80;99.90;;;;;;5051098;28;20025;-66
2021/07/02 00:34:53;;;;;;;3.13;2.50;;;17.80;99.90;;;;;;5032299;28;20034;-66
2021/07/02 00:37:19;;;;;;;4.90;2.17;;;17.80;99.90;;;;;;5031193;28;20460;-66
2021/07/02 00:39:44;;;;;;;4.07;3.03;;;17.90;99.90;;;;;;5029110;28;20057;-66
2021/07/02 00:42:10;;;;;;;3.97;2.75;;;17.80;99.90;;;;;;5034341;28;20039;-64
2021/07/02 00:44:44;;;;;;;3.55;2.20;;;17.80;99.90;;;;;;5049785;28;20043;-67
2021/07/02 00:47:11;;;;;;;9.60;3.30;;;17.80;99.90;;;;;;5050761;28;20021;-67
2021/07/02 00:49:37;;;;;;;3.28;2.67;;;17.80;99.90;;;;;;5050642;28;20047;-66
2021/07/02 00:52:05;;;;;;;3.15;2.80;;;17.80;99.90;;;;;;5050804;28;20024;-66
2021/07/02 00:54:32;;;;;;;6.97;3.70;;;17.80;99.90;;;;;;5050513;28;20485;-66
2021/07/02 00:56:58;;;;;;;4.35;2.80;;;17.80;99.90;;;;;;5050410;28;20033;-66
2021/07/02 00:59:23;;;;;;;4.85;3.05;;;17.80;99.90;;;;;;5049688;28;20044;-67
2021/07/02 01:01:49;;;;;;;5.22;3.45;;;17.80;99.90;;;;;;5050435;28;20427;-67
2021/07/02 01:04:14;;;;;;;7.32;4.78;;;17.80;99.90;;;;;;5050511;28;20025;-66
2021/07/02 01:06:40;;;;;;;6.60;4.53;;;17.80;99.90;;;;;;5051209;28;20025;-65
2021/07/02 01:09:08;;;;;;;6.88;4.50;;;17.90;99.90;;;;;;5057108;28;20060;-66
2021/07/02 01:11:33;;;;;;;7.70;4.50;;;17.90;99.90;;;;;;5056994;28;20033;-67
2021/07/02 01:13:59;;;;;;;5.70;4.72;;;17.80;99.90;;;;;;5056341;28;20119;-67
2021/07/02 01:16:24;;;;;;;9.07;4.53;;;17.80;99.90;;;;;;5055675;28;20029;-66
2021/07/02 01:18:50;;;;;;;6.43;4.05;;;17.80;99.90;;;;;;5057006;28;20028;-67
2021/07/02 01:21:15;;;;;;;6.82;3.80;;;17.90;99.90;;;;;;5057157;28;20090;-66
2021/07/02 01:23:41;;;;;;;9.20;5.20;;;17.80;99.90;;;;;;5057002;28;20747;-67
2021/07/02 01:26:07;;;;;;;7.20;4.47;;;17.80;99.90;;;;;;5055638;28;20036;-66
2021/07/02 01:28:32;;;;;;;8.05;4.68;;;17.80;99.90;;;;;;5057037;28;20643;-66
2021/07/02 01:30:58;;;;;;;11.57;5.38;;;17.80;99.90;;;;;;5056114;28;20142;-66
2021/07/02 01:33:24;;;;;;;10.52;6.03;;;17.80;99.90;;;;;;5050732;28;20496;-64
2021/07/02 01:35:49;;;;;;;7.50;4.72;;;17.80;99.90;;;;;;5036656;28;20029;-64
2021/07/02 01:38:15;;;;;;;9.55;5.50;;;17.80;99.90;;;;;;5037117;28;20591;-66
2021/07/02 01:40:40;;;;;;;11.40;5.05;;;17.80;99.90;;;;;;5027342;28;20030;-66
2021/07/02 01:43:06;;;;;;;9.85;6.43;;;17.80;99.90;;;;;;5054963;28;20112;-66
2021/07/02 01:45:31;;;;;;;12.48;7.47;;;17.80;99.90;;;;;;5055640;28;20028;-66
2021/07/02 01:47:57;;;;;;;10.85;6.43;;;17.80;99.90;;;;;;5056626;28;20481;-66
2021/07/02 01:50:25;;;;;;;8.52;5.00;;;17.80;99.90;;;;;;5056917;28;20395;-66
2021/07/02 01:52:54;;;;;;;8.65;4.88;;;17.80;99.90;;;;;;5056648;28;20044;-67
2021/07/02 01:55:20;;;;;;;14.50;6.97;;;17.80;99.90;;;;;;5056685;28;20029;-66
2021/07/02 01:57:46;;;;;;;12.52;7.07;;;17.80;99.90;;;;;;5056656;28;20099;-65
2021/07/02 02:00:12;;;;;;;10.43;5.97;;;17.80;99.90;;;;;;5055711;28;20433;-66
2021/07/02 02:02:38;;;;;;;8.75;5.30;;;17.80;99.90;;;;;;5056739;28;20488;-66
2021/07/02 02:05:04;;;;;;;11.95;6.40;;;17.80;99.90;;;;;;5056594;28;20116;-66
2021/07/02 02:07:30;;;;;;;10.32;5.18;;;17.80;99.90;;;;;;5056197;28;20025;-66
2021/07/02 02:09:55;;;;;;;7.60;5.43;;;17.80;99.90;;;;;;5038192;28;20232;-65
2021/07/02 02:12:21;;;;;;;12.68;6.35;;;17.80;99.90;;;;;;5038447;28;20029;-66
2021/07/02 02:14:47;;;;;;;13.63;6.32;;;17.80;99.90;;;;;;5037569;28;20108;-65
2021/07/02 02:17:13;;;;;;;13.55;6.97;;;17.70;99.90;;;;;;5038453;28;20109;-66
2021/07/02 02:19:38;;;;;;;13.88;5.90;;;17.80;99.90;;;;;;5035510;28;20029;-66
2021/07/02 02:22:04;;;;;;;10.40;5.97;;;17.80;99.90;;;;;;5035311;28;20034;-66
2021/07/02 02:24:30;;;;;;;12.82;6.35;;;17.80;99.90;;;;;;5035238;28;20021;-66
2021/07/02 02:26:55;;;;;;;11.48;7.00;;;17.70;99.90;;;;;;5035124;28;20025;-66
2021/07/02 02:29:22;;;;;;;12.15;6.22;;;17.70;99.90;;;;;;5034083;28;20376;-64
2021/07/02 02:31:48;;;;;;;12.93;6.53;;;17.80;99.90;;;;;;5033992;28;20018;-66
2021/07/02 02:34:14;;;;;;;9.07;6.35;;;17.80;99.90;;;;;;5048099;28;20028;-65
2021/07/02 02:36:39;;;;;;;14.32;6.75;;;17.80;99.90;;;;;;5040051;28;20025;-66
2021/07/02 02:39:06;;;;;;;11.00;5.90;;;17.80;99.90;;;;;;5034841;28;20032;-66
2021/07/02 02:41:32;;;;;;;19.27;8.13;;;17.80;99.90;;;;;;5035007;28;20029;-65
2021/07/02 02:43:58;;;;;;;9.77;6.13;;;17.80;99.90;;;;;;5033912;28;20500;-66
2021/07/02 02:46:23;;;;;;;9.48;6.63;;;17.80;99.90;;;;;;5034585;28;20030;-66
2021/07/02 02:48:49;;;;;;;11.90;7.10;;;17.80;99.90;;;;;;5034993;28;20064;-65
2021/07/02 02:51:14;;;;;;;13.52;6.82;;;17.80;99.90;;;;;;5034571;28;20025;-66
2021/07/02 02:53:40;;;;;;;13.07;8.15;;;17.80;99.90;;;;;;5034738;28;20029;-65
2021/07/02 02:56:06;;;;;;;9.98;6.55;;;17.80;99.90;;;;;;5034423;28;20033;-66
2021/07/02 02:58:32;;;;;;;13.82;7.80;;;17.80;99.90;;;;;;5034573;28;20045;-64
2021/07/02 03:00:57;;;;;;;14.18;7.20;;;17.80;99.90;;;;;;5033514;28;20112;-66
2021/07/02 03:03:23;;;;;;;12.90;7.25;;;17.80;99.90;;;;;;5034835;28;20037;-66
2021/07/02 03:05:48;;;;;;;13.40;8.20;;;17.90;99.90;;;;;;5034351;28;20030;-66
2021/07/02 03:08:14;;;;;;;14.20;7.47;;;17.80;99.90;;;;;;5034391;28;20036;-65
2021/07/02 03:10:40;;;;;;;13.55;7.60;;;17.90;99.90;;;;;;5034376;28;20029;-66
2021/07/02 03:13:05;;;;;;;14.73;8.00;;;17.90;99.90;;;;;;5034330;28;20354;-66
2021/07/02 03:15:31;;;;;;;13.93;7.18;;;17.90;99.90;;;;;;5033206;28;20025;-66
2021/07/02 03:17:56;;;;;;;12.55;7.75;;;17.90;99.90;;;;;;5034327;28;20438;-66
2021/07/02 03:20:22;;;;;;;12.63;7.35;;;18.00;99.90;;;;;;5034055;28;20036;-66
2021/07/02 03:22:47;;;;;;;16.90;7.82;;;17.90;99.90;;;;;;5034181;28;20424;-67
2021/07/02 03:25:13;;;;;;;10.18;6.38;;;18.00;99.90;;;;;;5033960;28;20034;-66
2021/07/02 03:27:40;;;;;;;19.00;8.30;;;18.00;99.90;;;;;;5034195;28;20056;-64
2021/07/02 03:30:09;;;;;;;23.15;8.90;;;18.00;99.90;;;;;;5032383;28;20026;-66
2021/07/02 03:32:35;;;;;;;19.73;8.75;;;18.10;99.90;;;;;;5015834;28;20493;-66
2021/07/02 03:35:00;;;;;;;18.98;8.38;;;18.10;99.90;;;;;;5053299;28;20033;-66
2021/07/02 03:37:26;;;;;;;40.55;10.55;;;18.10;99.90;;;;;;5033773;28;20429;-66
2021/07/02 03:39:51;;;;;;;16.23;9.05;;;18.10;99.90;;;;;;5033856;28;20033;-65
2021/07/02 03:42:17;;;;;;;12.40;7.38;;;18.10;99.90;;;;;;5033805;28;20034;-66
2021/07/02 03:44:43;;;;;;;20.52;9.25;;;18.20;99.90;;;;;;5031434;28;20029;-65
2021/07/02 03:47:08;;;;;;;17.50;8.85;;;18.20;99.90;;;;;;5033655;28;20025;-66
2021/07/02 03:49:34;;;;;;;19.75;9.65;;;18.10;99.90;;;;;;5033894;28;20029;-65
2021/07/02 03:51:59;;;;;;;38.83;11.55;;;18.10;99.90;;;;;;5032278;28;20096;-65
2021/07/02 03:54:25;;;;;;;13.98;8.40;;;18.20;99.90;;;;;;5033532;28;20032;-65
2021/07/02 03:59:34;;;;;;;18.25;9.15;;;18.20;99.90;;;;;;5032619;28;20063;-66
2021/07/02 04:02:00;;;;;;;12.15;7.50;;;18.20;99.90;;;;;;5032049;28;20045;-66
2021/07/02 04:04:27;;;;;;;13.57;7.88;;;18.20;99.90;;;;;;5033410;28;20037;-66
2021/07/02 04:06:52;;;;;;;14.38;8.55;;;18.30;99.90;;;;;;5031901;28;20039;-65
2021/07/02 04:09:18;;;;;;;16.63;9.43;;;18.30;99.90;;;;;;5033365;28;20024;-66
2021/07/02 04:11:43;;;;;;;17.23;9.20;;;18.40;99.90;;;;;;5033310;28;20040;-66
2021/07/02 04:14:09;;;;;;;16.33;8.68;;;18.40;99.90;;;;;;5032304;28;20037;-66
2021/07/02 04:16:34;;;;;;;19.33;9.38;;;18.40;99.90;;;;;;5032978;28;20087;-66
2021/07/02 04:19:00;;;;;;;17.92;8.52;;;18.40;99.90;;;;;;5033275;28;20571;-66
2021/07/02 04:21:26;;;;;;;20.92;11.13;;;18.50;99.90;;;;;;5032967;28;20060;-66
2021/07/02 04:23:51;;;;;;;16.27;9.77;;;18.50;99.90;;;;;;5033125;28;20068;-65
2021/07/02 04:26:17;;;;;;;15.38;8.68;;;18.50;99.90;;;;;;5032769;28;20061;-66
2021/07/02 04:28:43;;;;;;;21.70;10.32;;;18.50;99.90;;;;;;5033144;28;20507;-65
2021/07/02 04:31:08;;;;;;;25.50;10.73;;;18.60;99.90;;;;;;5031808;28;20500;-65
2021/07/02 04:33:34;;;;;;;20.20;11.15;;;18.60;99.90;;;;;;5040541;28;20722;-65
2021/07/02 04:35:59;;;;;;;18.77;9.93;;;18.70;99.90;;;;;;5044266;28;20025;-66
2021/07/02 04:38:25;;;;;;;19.38;10.23;;;18.70;99.90;;;;;;5032838;28;20034;-64
2021/07/02 04:40:51;;;;;;;19.08;10.70;;;18.70;99.90;;;;;;5032793;28;20035;-66
2021/07/02 04:43:17;;;;;;;19.17;10.32;;;18.80;99.90;;;;;;5032374;28;20067;-66
2021/07/02 04:45:43;;;;;;;23.48;12.38;;;18.90;99.90;;;;;;5031517;28;20061;-65
2021/07/02 04:48:08;;;;;;;25.90;12.85;;;18.90;99.90;;;;;;5032633;28;20030;-65
2021/07/02 04:50:34;;;;;;;19.52;10.45;;;19.00;99.90;;;;;;5032451;28;20112;-66
2021/07/02 04:53:00;;;;;;;25.70;11.50;;;19.10;99.90;;;;;;5032732;28;20025;-66
2021/07/02 04:55:25;;;;;;;26.13;11.57;;;19.10;99.90;;;;;;5032482;28;20036;-65
2021/07/02 04:57:51;;;;;;;19.10;10.75;;;19.20;99.90;;;;;;5032664;28;20033;-66
2021/07/02 05:00:17;;;;;;;21.10;11.07;;;19.30;99.90;;;;;;5031657;28;20029;-65
2021/07/02 05:02:43;;;;;;;17.95;10.02;;;19.40;99.90;;;;;;5032297;28;20477;-66
2021/07/02 05:05:09;;;;;;;20.90;11.07;;;19.50;99.90;;;;;;5032243;28;20040;-65
2021/07/02 05:07:35;;;;;;;22.02;11.20;;;19.60;99.90;;;;;;5032410;28;20181;-65
2021/07/02 05:10:01;;;;;;;23.58;13.75;;;19.70;99.90;;;;;;5032654;28;20108;-64
2021/07/02 05:12:29;;;;;;;16.92;11.10;;;19.80;99.90;;;;;;5032327;28;20487;-66
2021/07/02 05:14:55;;;;;;;17.25;11.38;;;20.00;99.90;;;;;;5031675;28;20036;-66
2021/07/02 05:17:20;;;;;;;15.35;11.18;;;20.10;99.90;;;;;;5032116;28;20022;-65
2021/07/02 05:19:46;;;;;;;19.65;13.68;;;20.30;99.90;;;;;;5032345;28;20473;-65
2021/07/02 05:22:16;;;;;;;16.60;11.07;;;20.50;99.90;;;;;;5032258;28;20108;-65
2021/07/02 05:24:42;;;;;;;17.77;11.95;;;20.50;99.90;;;;;;5032323;28;20013;-65
2021/07/02 05:27:08;;;;;;;13.85;10.00;;;20.60;99.90;;;;;;5032345;28;20064;-65
2021/07/02 05:29:33;;;;;;;14.13;10.45;;;20.70;99.90;;;;;;5031281;28;20590;-65
2021/07/02 05:31:59;;;;;;;13.10;9.93;;;20.80;99.90;;;;;;5032169;28;20053;-66
2021/07/02 05:34:24;;;;;;;15.40;10.68;;;20.90;99.90;;;;;;5046580;28;20052;-65
2021/07/02 05:36:50;;;;;;;13.88;10.48;;;20.90;99.90;;;;;;5036818;28;20037;-65
2021/07/02 05:39:15;;;;;;;15.77;11.02;;;21.00;99.90;;;;;;5032244;28;20033;-66
2021/07/02 05:41:41;;;;;;;11.30;8.65;;;21.70;99.90;;;;;;5032186;28;20045;-65
2021/07/02 05:44:06;;;;;;;8.82;7.13;;;22.40;99.90;;;;;;5031407;28;20314;-64
2021/07/02 05:46:32;;;;;;;10.00;7.85;;;23.10;99.90;;;;;;5031916;28;20025;-65
2021/07/02 05:48:57;;;;;;;10.02;8.43;;;23.50;99.90;;;;;;5031998;28;20018;-65
2021/07/02 05:51:23;;;;;;;10.25;8.15;;;23.80;99.90;;;;;;5031922;28;20026;-65
2021/07/02 05:53:49;;;;;;;10.70;6.63;;;23.80;99.90;;;;;;5032700;28;20021;-65
2021/07/02 05:56:14;;;;;;;8.43;6.32;;;23.40;99.90;;;;;;5035714;28;20472;-64
2021/07/02 05:58:40;;;;;;;8.77;6.25;;;23.20;99.90;;;;;;5035830;28;20085;-65
2021/07/02 06:01:05;;;;;;;10.65;6.38;;;23.20;99.90;;;;;;5034650;28;20076;-65
2021/07/02 06:03:31;;;;;;;9.82;6.03;;;23.20;99.90;;;;;;5035239;28;20033;-65
2021/07/02 06:05:56;;;;;;;13.18;6.57;;;23.00;99.90;;;;;;5035476;28;20034;-65
2021/07/02 06:08:22;;;;;;;6.32;5.72;;;23.00;99.90;;;;;;5034333;28;20025;-65
2021/07/02 06:10:49;;;;;;;7.68;5.82;;;23.00;99.90;;;;;;5035464;28;20021;-65
2021/07/02 06:13:15;;;;;;;8.30;5.93;;;23.00;99.90;;;;;;5035607;28;20029;-65
2021/07/02 06:15:40;;;;;;;12.88;6.25;;;22.90;99.90;;;;;;5034557;28;20033;-64
2021/07/02 06:18:08;;;;;;;5.90;5.20;;;22.80;99.90;;;;;;5035122;28;20029;-65
2021/07/02 06:20:33;;;;;;;7.40;5.05;;;22.70;99.90;;;;;;5035378;28;20132;-65
2021/07/02 06:22:59;;;;;;;9.27;5.75;;;22.70;99.90;;;;;;5035297;28;20501;-64
2021/07/02 06:25:25;;;;;;;9.00;5.95;;;22.50;99.90;;;;;;5035227;28;20075;-65
2021/07/02 06:27:50;;;;;;;8.27;5.55;;;22.40;99.90;;;;;;5035187;28;20105;-63
2021/07/02 06:30:17;;;;;;;9.63;5.57;;;22.30;99.90;;;;;;5034358;28;20473;-65
2021/07/02 06:32:43;;;;;;;8.05;5.85;;;22.40;99.90;;;;;;5035421;28;20473;-64
2021/07/02 06:35:09;;;;;;;13.23;6.28;;;22.60;99.90;;;;;;5046110;28;20064;-64
2021/07/02 06:37:34;;;;;;;4.95;4.43;;;22.60;99.90;;;;;;5034724;28;20117;-65
2021/07/02 06:40:00;;;;;;;7.38;4.63;;;22.70;99.90;;;;;;5034818;28;20029;-65
2021/07/02 06:42:26;;;;;;;8.32;4.53;;;23.10;99.90;;;;;;5034846;28;20045;-65
2021/07/02 06:44:51;;;;;;;7.35;4.85;;;23.60;99.90;;;;;;5034041;28;20033;-65
2021/07/02 06:47:17;;;;;;;14.50;5.05;;;24.40;99.90;;;;;;5034609;28;20084;-65
2021/07/02 06:49:42;;;;;;;6.85;4.97;;;25.00;99.90;;;;;;5034704;28;20033;-65
2021/07/02 06:52:08;;;;;;;9.23;6.18;;;25.70;99.90;;;;;;5032231;28;20034;-65
2021/07/02 06:54:34;;;;;;;7.63;5.20;;;25.60;99.90;;;;;;5016757;28;20049;-65
2021/07/02 06:57:00;;;;;;;7.85;5.35;;;25.70;99.90;;;;;;5017208;28;20030;-65
2021/07/02 06:59:27;;;;;;;6.30;5.13;;;25.50;99.90;;;;;;5020174;28;20141;-64
2021/07/02 07:01:54;;;;;;;5.32;4.75;;;25.70;99.90;;;;;;5024240;28;20085;-65
2021/07/02 07:04:20;;;;;;;8.50;5.03;;;26.10;99.90;;;;;;5033356;28;20029;-64
2021/07/02 07:06:46;;;;;;;8.45;5.20;;;26.00;99.90;;;;;;5032129;28;20401;-64
2021/07/02 07:09:11;;;;;;;5.15;4.40;;;25.80;99.90;;;;;;5032728;28;20040;-64
2021/07/02 07:11:37;;;;;;;4.35;3.72;;;25.80;99.90;;;;;;5038608;28;20492;-65
2021/07/02 07:14:02;;;;;;;5.47;4.97;;;26.20;99.90;;;;;;5030543;28;20036;-63
2021/07/02 07:16:28;;;;;;;5.13;4.45;;;26.10;99.90;;;;;;5053208;28;20033;-65
2021/07/02 07:18:53;;;;;;;6.03;4.55;;;26.10;99.90;;;;;;5053191;28;20035;-64
2021/07/02 07:21:19;;;;;;;5.78;4.50;;;26.80;99.90;;;;;;5053292;28;20033;-64
2021/07/02 07:23:44;;;;;;;7.03;4.00;;;26.90;99.90;;;;;;5053099;28;20065;-64
2021/07/02 07:26:10;;;;;;;7.90;4.57;;;27.50;99.90;;;;;;5053115;28;20044;-64
2021/07/02 07:28:35;;;;;;;5.68;4.70;;;28.00;99.90;;;;;;5053006;28;20540;-64
2021/07/02 07:31:01;;;;;;;4.88;4.28;;;28.20;99.90;;;;;;5052118;28;20052;-63
2021/07/02 07:33:27;;;;;;;4.82;3.88;;;28.10;99.90;;;;;;5031122;28;20074;-63
2021/07/02 07:35:52;;;;;;;4.95;4.28;;;28.00;99.90;;;;;;5033727;28;20033;-63
2021/07/02 07:38:19;;;;;;;4.47;4.07;;;27.50;99.90;;;;;;5033775;28;20025;-64
2021/07/02 07:40:44;;;;;;;6.47;3.83;;;27.40;99.90;;;;;;5033922;28;20514;-63
2021/07/02 07:43:10;;;;;;;5.38;3.90;;;27.50;99.90;;;;;;5033768;28;20104;-63
2021/07/02 07:45:35;;;;;;;4.15;3.85;;;27.50;99.90;;;;;;5032711;28;20064;-63
2021/07/02 07:48:01;;;;;;;5.18;3.85;;;27.60;99.90;;;;;;5033582;28;20036;-64
2021/07/02 07:50:29;;;;;;;4.75;3.53;;;27.40;99.90;;;;;;5033583;28;20480;-63
2021/07/02 07:53:01;;;;;;;5.18;3.50;;;26.80;99.90;;;;;;5033532;28;20469;-64
2021/07/02 07:55:28;;;;;;;5.53;3.83;;;26.40;99.90;;;;;;5032409;28;20061;-64
2021/07/02 07:57:55;;;;;;;4.57;3.50;;;25.90;99.90;;;;;;5033473;28;20033;-64
2021/07/02 08:00:21;;;;;;;4.72;3.75;;;25.50;99.90;;;;;;5032381;28;20033;-64
2021/07/02 08:02:47;;;;;;;5.88;3.20;;;25.20;99.90;;;;;;5033285;28;20049;-63
2021/07/02 08:05:12;;;;;;;3.17;2.88;;;25.10;99.90;;;;;;5033393;28;20030;-64
2021/07/02 08:07:40;;;;;;;3.80;3.15;;;25.00;99.90;;;;;;5033225;28;20032;-64
2021/07/02 08:10:08;;;;;;;4.90;3.30;;;25.00;99.90;;;;;;5033509;28;20036;-64
2021/07/02 08:12:34;;;;;;;6.18;3.38;;;25.10;99.90;;;;;;5033100;28;20026;-64
2021/07/02 08:15:00;;;;;;;5.78;3.47;;;25.40;99.90;;;;;;5032316;28;20056;-64
2021/07/02 08:17:29;;;;;;;5.82;3.95;;;25.60;99.90;;;;;;5032522;28;20385;-64
2021/07/02 08:19:56;;;;;;;3.45;3.15;;;25.40;99.90;;;;;;5033222;28;20455;-64
2021/07/02 08:22:23;;;;;;;3.90;3.13;;;25.40;99.90;;;;;;5033045;28;20349;-65
2021/07/02 08:24:48;;;;;;;3.17;2.88;;;25.80;99.90;;;;;;5031798;28;20414;-63
2021/07/02 08:27:14;;;;;;;4.95;3.13;;;25.80;99.90;;;;;;5033014;28;20057;-64
2021/07/02 08:29:39;;;;;;;5.13;2.80;;;25.80;99.90;;;;;;5031888;28;20075;-63
2021/07/02 08:32:05;;;;;;;3.95;3.13;;;26.50;99.90;;;;;;5032921;28;20105;-66
2021/07/02 08:34:31;;;;;;;3.53;3.20;;;28.00;99.90;;;;;;5032978;28;20029;-65
2021/07/02 08:36:56;;;;;;;3.28;2.92;;;28.50;99.90;;;;;;5032689;28;20041;-63
2021/07/02 08:39:22;;;;;;;4.13;3.15;;;29.30;99.90;;;;;;5032880;28;20056;-65
2021/07/02 08:41:47;;;;;;;7.50;3.47;;;29.20;99.90;;;;;;5032854;28;20108;-64
2021/07/02 08:44:13;;;;;;;3.25;3.00;;;30.30;99.90;;;;;;5031787;28;20033;-64
2021/07/02 08:46:42;;;;;;;3.88;3.47;;;31.70;99.90;;;;;;5032631;28;20053;-64
2021/07/02 08:49:08;;;;;;;4.93;3.10;;;32.60;99.90;;;;;;5032678;28;20021;-63
2021/07/02 08:51:33;;;;;;;4.13;2.80;;;33.10;99.90;;;;;;5032652;28;20025;-64
2021/07/02 08:53:59;;;;;;;3.58;3.28;;;32.90;99.90;;;;;;5032622;28;20121;-65
2021/07/02 08:56:25;;;;;;;10.35;4.00;;;32.80;99.90;;;;;;5032647;28;20029;-65
2021/07/02 08:58:51;;;;;;;4.82;3.30;;;31.80;99.90;;;;;;5030069;28;20120;-65
2021/07/02 09:01:44;;;;;;;3.15;2.72;;;30.90;99.90;;;;;;5032580;28;20061;-65
2021/07/02 09:04:25;;;;;;;3.25;2.95;;;30.20;99.90;;;;;;5032602;28;20030;-65
2021/07/02 09:07:05;;;;;;;3.60;3.30;;;31.00;99.90;;;;;;5032127;28;20053;-65
2021/07/02 09:10:06;;;;;;;3.08;2.78;;;31.50;99.90;;;;;;5032488;28;20099;-65
2021/07/02 09:12:37;;;;;;;3.83;2.80;;;32.80;99.90;;;;;;5030092;28;20060;-65
2021/07/02 09:15:07;;;;;;;2.95;2.65;;;33.20;99.90;;;;;;5031243;28;20532;-64
2021/07/02 09:17:35;;;;;;;4.05;3.38;;;33.00;99.90;;;;;;5032239;28;20112;-65
2021/07/02 09:20:07;;;;;;;3.03;2.83;;;32.50;99.90;;;;;;5032486;28;20022;-65
2021/07/02 09:22:42;;;;;;;3.28;2.97;;;32.90;99.90;;;;;;5032240;28;20037;-65
2021/07/02 09:25:19;;;;;;;5.07;3.58;;;32.70;99.90;;;;;;5032331;28;20038;-62
2021/07/02 09:27:44;;;;;;;3.58;3.28;;;32.00;99.90;;;;;;5032587;28;20033;-65
2021/07/02 09:30:16;;;;;;;4.43;2.70;;;31.20;99.90;;;;;;5035450;28;20021;-65
2021/07/02 09:32:48;;;;;;;2.95;2.60;;;30.60;99.90;;;;;;5036082;28;20028;-66
2021/07/02 09:35:16;;;;;;;3.78;3.28;;;29.80;99.90;;;;;;5036384;28;20052;-66
2021/07/02 09:37:43;;;;;;;4.22;3.03;;;29.40;99.90;;;;;;5035962;28;20416;-65
2021/07/02 09:40:18;;;;;;;4.57;3.47;;;29.90;99.90;;;;;;5036319;28;20442;-65
2021/07/02 09:42:46;;;;;;;3.70;3.40;;;30.70;99.90;;;;;;5035983;28;20037;-65
2021/07/02 09:45:15;;;;;;;4.45;3.15;;;31.50;99.90;;;;;;5035246;28;20139;-65
2021/07/02 09:47:46;;;;;;;4.85;3.50;;;32.00;99.90;;;;;;5035879;28;20059;-65
2021/07/02 09:50:27;;;;;;;2.97;2.78;;;31.90;99.90;;;;;;5036075;28;20017;-64
2021/07/02 09:53:06;;;;;;;4.55;3.20;;;32.20;99.90;;;;;;5035624;28;20473;-64
2021/07/02 09:55:43;;;;;;;4.65;3.13;;;31.50;99.90;;;;;;5036011;28;20029;-65
2021/07/02 09:58:17;;;;;;;5.03;3.63;;;30.80;99.90;;;;;;5035795;28;20026;-65
2021/07/02 10:00:45;;;;;;;3.33;2.88;;;29.90;99.90;;;;;;5034916;28;20060;-65
2021/07/02 10:03:13;;;;;;;3.42;2.78;;;29.30;99.90;;;;;;5035829;28;20149;-64
2021/07/02 10:05:48;;;;;;;3.60;3.22;;;28.90;99.90;;;;;;5035504;28;20793;-65
2021/07/02 10:08:14;;;;;;;3.17;2.88;;;28.60;99.90;;;;;;5035495;28;20026;-65
2021/07/02 10:10:40;;;;;;;3.63;2.80;;;28.30;99.90;;;;;;5035689;28;20029;-65
2021/07/02 10:13:06;;;;;;;3.30;3.00;;;28.10;99.90;;;;;;5035439;28;20017;-65
2021/07/02 10:15:32;;;;;;;3.63;2.70;;;28.10;99.90;;;;;;5034777;28;20065;-65
2021/07/02 10:17:59;;;;;;;4.15;2.70;;;27.80;99.90;;;;;;5035125;28;20037;-65
2021/07/02 10:20:30;;;;;;;3.05;2.70;;;27.60;99.90;;;;;;5035579;28;20060;-66
2021/07/02 10:22:58;;;;;;;4.22;3.33;;;27.20;99.90;;;;;;5035135;28;20072;-64
2021/07/02 10:25:26;;;;;;;3.50;3.10;;;26.60;99.90;;;;;;5035333;28;20033;-65
2021/07/02 10:27:52;;;;;;;5.97;3.15;;;26.70;99.90;;;;;;5035139;28;20393;-65
2021/07/02 10:30:18;;;;;;;4.72;3.28;;;27.10;99.90;;;;;;5034463;28;20044;-65
2021/07/02 10:32:47;;;;;;;5.93;3.53;;;27.10;99.90;;;;;;5035006;28;20464;-66
2021/07/02 10:35:14;;;;;;;5.30;3.45;;;27.20;99.90;;;;;;5035149;28;20028;-66
2021/07/02 10:37:48;;;;;;;3.85;2.90;;;27.00;99.90;;;;;;5035148;28;20053;-66
2021/07/02 10:40:33;;;;;;;5.18;3.00;;;26.80;99.90;;;;;;5034290;28;20060;-66
2021/07/02 10:43:09;;;;;;;3.78;2.92;;;26.90;99.90;;;;;;5034887;28;20024;-65
2021/07/02 10:45:35;;;;;;;;;;;27.00;99.90;;;;;;5034486;28;20116;-64
2021/07/02 10:48:01;;;;;;;2.85;2.65;;;27.10;99.90;;;;;;5034954;28;19912;-65
2021/07/02 10:50:37;;;;;;;3.25;2.95;;;27.20;99.90;;;;;;5035290;28;20033;-66
2021/07/02 10:53:24;;;;;;;3.80;3.38;;;27.20;99.90;;;;;;5034791;28;20052;-66
2021/07/02 10:55:50;;;;;;;6.07;3.35;;;27.00;99.90;;;;;;5034577;28;20060;-65
2021/07/02 10:58:15;;;;;;;4.10;3.25;;;26.90;99.90;;;;;;5034785;28;20025;-64
2021/07/02 11:01:09;;;;;;;4.55;2.95;;;27.00;99.90;;;;;;5033902;28;20421;-65
2021/07/02 11:03:37;;;;;;;3.47;2.85;;;27.00;99.90;;;;;;5031259;28;20052;-66
2021/07/02 11:06:33;;;;;;;4.38;3.08;;;27.10;99.90;;;;;;5025549;28;20116;-66
2021/07/02 11:08:59;;;;;;;4.13;3.72;;;27.20;99.90;;;;;;5025515;28;20105;-65
2021/07/02 11:11:24;;;;;;;5.80;3.28;;;27.00;99.90;;;;;;5048147;28;20139;-66
2021/07/02 11:14:09;;;;;;;4.85;3.22;;;26.80;99.90;;;;;;5034674;28;20044;-63
2021/07/02 11:17:13;;;;;;;3.55;3.22;;;26.80;99.90;;;;;;5032607;28;20026;-63
2021/07/02 11:19:39;;;;;;;4.80;3.70;;;26.40;99.90;;;;;;5032309;28;20033;-62
2021/07/02 11:22:31;;;;;;;4.32;3.88;;;26.10;99.90;;;;;;5034527;28;20071;-63
2021/07/02 11:25:02;;;;;;;7.80;3.90;;;26.30;99.90;;;;;;5051818;28;20059;-62
2021/07/02 11:27:40;;;;;;;5.85;3.83;;;26.20;99.90;;;;;;5034351;28;20024;-63
2021/07/02 11:30:12;;;;;;;3.67;3.38;;;26.10;99.90;;;;;;5020919;28;20822;-62
2021/07/02 11:32:45;;;;;;;4.28;3.45;;;26.10;99.90;;;;;;5032360;28;20100;-63
2021/07/02 11:35:24;;;;;;;4.68;3.65;;;26.00;99.90;;;;;;5041165;28;20113;-62
2021/07/02 11:38:11;;;;;;;4.80;3.47;;;26.00;99.90;;;;;;5028554;28;20056;-60
2021/07/02 11:40:50;;;;;;;4.03;3.50;;;26.10;99.90;;;;;;5019754;28;20029;-63
2021/07/02 11:43:29;;;;;;;3.38;3.00;;;26.20;99.90;;;;;;5045164;28;20134;-62
2021/07/02 11:45:56;;;;;;;3.55;3.22;;;26.30;99.90;;;;;;5013460;28;20022;-62
2021/07/02 11:48:25;;;;;;;5.70;3.17;;;26.20;99.90;;;;;;5030141;28;20118;-63
2021/07/02 11:51:05;;;;;;;8.75;4.38;;;26.10;99.90;;;;;;5031645;28;20025;-61
2021/07/02 11:53:35;;;;;;;4.25;3.65;;;25.70;99.90;;;;;;5026873;28;20102;-63
2021/07/02 11:56:06;;;;;;;4.15;3.75;;;25.70;99.90;;;;;;5024247;28;20631;-63
2021/07/02 11:58:33;;;;;;;4.70;4.00;;;25.50;99.90;;;;;;5028889;28;20429;-63
2021/07/02 12:01:13;;;;;;;3.50;3.20;;;25.50;99.90;;;;;;5030714;28;20044;-63
2021/07/02 12:03:52;;;;;;;8.85;3.92;;;25.60;99.90;;;;;;5027448;28;20524;-63
2021/07/02 12:06:26;;;;;;;4.18;3.72;;;25.80;99.90;;;;;;5025515;28;20048;-63
2021/07/02 12:08:57;;;;;;;4.35;3.80;;;25.70;99.90;;;;;;5030405;28;20025;-63
2021/07/02 12:11:31;;;;;;;6.03;3.95;;;25.60;99.90;;;;;;5029945;28;20508;-63
2021/07/02 12:13:58;;;;;;;6.55;3.72;;;25.40;99.90;;;;;;5028071;28;20030;-63
2021/07/02 12:16:29;;;;;;;4.18;3.78;;;25.50;99.90;;;;;;5016878;28;20041;-63
2021/07/02 12:18:56;;;;;;;4.20;3.58;;;25.70;99.90;;;;;;5031392;28;20030;-63
2021/07/02 12:21:31;;;;;;;3.95;3.45;;;25.60;99.90;;;;;;5031451;28;20025;-63
2021/07/02 12:23:58;;;;;;;8.23;4.13;;;25.70;99.90;;;;;;5039483;28;20060;-63
2021/07/02 12:26:27;;;;;;;4.28;3.90;;;25.90;99.90;;;;;;5033570;28;20042;-63
2021/07/02 12:29:04;;;;;;;5.57;3.97;;;25.90;99.90;;;;;;5015517;28;20064;-63
2021/07/02 12:31:37;;;;;;;5.32;4.13;;;26.10;99.90;;;;;;5027170;28;20029;-62
2021/07/02 12:34:05;;;;;;;4.55;3.50;;;26.00;99.90;;;;;;5040656;28;20018;-63
2021/07/02 12:36:31;;;;;;;4.40;3.80;;;25.90;99.90;;;;;;5038487;28;20473;-63
2021/07/02 12:39:02;;;;;;;4.50;3.70;;;25.80;99.90;;;;;;5030992;28;20041;-63
2021/07/02 12:41:54;;;;;;;4.35;3.83;;;25.50;99.90;;;;;;5030978;28;20444;-63
2021/07/02 12:44:21;;;;;;;5.28;4.13;;;25.40;99.90;;;;;;5028853;28;20046;-63
2021/07/02 12:46:48;;;;;;;5.63;3.85;;;25.30;99.90;;;;;;5031051;28;20187;-63
2021/07/02 12:49:26;;;;;;;3.90;3.50;;;25.40;99.90;;;;;;5030726;28;20033;-63